Time;durP1;ratioP1;P1;durP2;ratioP2;P2;SDS_P1;SDS_P2;PMS_P1;PMS_P2;Temp;Humidity;BMP_temperature;BMP_pressure;BME280_temperature;BME280_humidity;BME280_pressure;Samples;Min_cycle;Max_cycle;Signal;HPM_P1;HPM_P2
2023/05/21 00:01:50;;;;;;;12.60;11.00;;;16.40;99.90;;;;;;5135434;27;20253;-32
2023/05/21 00:04:20;;;;;;;11.98;10.77;;;16.40;99.90;;;;;;5113656;27;20206;-33
2023/05/21 00:06:47;;;;;;;12.53;10.67;;;16.40;99.90;;;;;;5134853;27;20232;-32
2023/05/21 00:09:18;;;;;;;11.23;10.05;;;16.30;99.90;;;;;;5135493;27;20191;-33
2023/05/21 00:11:47;;;;;;;12.40;11.03;;;16.30;99.90;;;;;;5134633;27;20186;-33
2023/05/21 00:14:14;;;;;;;12.55;11.25;;;16.20;99.90;;;;;;5098798;27;20211;-35
2023/05/21 00:16:46;;;;;;;12.13;10.90;;;16.20;99.90;;;;;;5097081;28;20176;-33
2023/05/21 00:19:14;;;;;;;12.37;11.20;;;16.00;99.90;;;;;;5099067;27;20235;-33
2023/05/21 00:21:44;;;;;;;12.55;10.68;;;16.00;99.90;;;;;;5116062;27;20232;-32
2023/05/21 00:24:10;;;;;;;12.37;11.10;;;15.90;99.90;;;;;;5099036;27;20206;-34
2023/05/21 00:26:38;;;;;;;14.83;11.70;;;15.90;99.90;;;;;;5099708;27;20183;-36
2023/05/21 00:29:06;;;;;;;12.93;11.63;;;15.90;99.90;;;;;;5135233;27;20218;-32
2023/05/21 00:31:35;;;;;;;12.63;11.40;;;15.80;99.90;;;;;;5099421;27;20183;-32
2023/05/21 00:34:03;;;;;;;13.20;11.57;;;15.80;99.90;;;;;;5114709;27;20298;-34
2023/05/21 00:36:30;;;;;;;12.07;10.60;;;15.70;99.90;;;;;;5116608;27;20183;-31
2023/05/21 00:38:58;;;;;;;13.33;11.10;;;15.70;99.90;;;;;;5116389;27;20183;-32
2023/05/21 00:41:26;;;;;;;12.63;11.20;;;15.70;99.90;;;;;;5099318;27;20175;-33
2023/05/21 00:43:52;;;;;;;13.73;11.80;;;15.60;99.90;;;;;;5109916;28;20204;-33
2023/05/21 00:46:20;;;;;;;13.70;11.70;;;15.50;99.90;;;;;;5097803;27;20187;-34
2023/05/21 00:48:54;;;;;;;14.43;11.20;;;15.50;99.90;;;;;;5117132;27;20206;-33
2023/05/21 00:51:21;;;;;;;12.50;11.13;;;15.40;99.90;;;;;;5099279;27;20259;-35
2023/05/21 00:53:51;;;;;;;15.23;12.57;;;15.40;99.90;;;;;;5115073;27;20195;-33
2023/05/21 00:56:22;;;;;;;12.93;11.63;;;15.40;99.90;;;;;;5132652;27;20179;-33
2023/05/21 00:58:53;;;;;;;13.17;11.20;;;15.30;99.90;;;;;;5116483;27;20178;-32
2023/05/21 01:01:19;;;;;;;12.33;11.00;;;15.30;99.90;;;;;;5115679;27;20274;-36
2023/05/21 01:03:47;;;;;;;13.03;11.50;;;15.20;99.90;;;;;;5099241;27;20210;-32
2023/05/21 01:06:14;;;;;;;13.83;12.17;;;15.20;99.90;;;;;;5098813;27;20224;-33
2023/05/21 01:08:41;;;;;;;13.57;12.23;;;15.10;99.90;;;;;;5098389;27;20707;-32
2023/05/21 01:11:09;;;;;;;14.07;12.57;;;15.10;99.90;;;;;;5118230;27;20298;-36
2023/05/21 01:13:40;;;;;;;14.07;11.77;;;15.10;99.90;;;;;;5112252;27;20259;-33
2023/05/21 01:16:08;;;;;;;12.87;11.67;;;15.10;99.90;;;;;;5103739;28;20246;-33
2023/05/21 01:18:36;;;;;;;13.57;12.17;;;15.00;99.90;;;;;;5082074;27;20183;-33
2023/05/21 01:21:09;;;;;;;14.33;12.23;;;15.00;99.90;;;;;;5115788;27;20175;-33
2023/05/21 01:23:36;;;;;;;13.67;11.87;;;15.00;99.90;;;;;;5115534;27;20199;-33
2023/05/21 01:26:02;;;;;;;16.37;12.90;;;14.90;99.90;;;;;;5098522;27;20182;-34
2023/05/21 01:28:29;;;;;;;13.13;11.77;;;14.80;99.90;;;;;;5133808;27;20187;-32
2023/05/21 01:31:00;;;;;;;13.20;11.90;;;14.80;99.90;;;;;;5098763;27;20186;-33
2023/05/21 01:33:37;;;;;;;12.93;11.53;;;14.70;99.90;;;;;;5115181;27;20199;-33
2023/05/21 01:36:14;;;;;;;17.43;12.00;;;14.70;99.90;;;;;;5115713;27;20243;-33
2023/05/21 01:38:55;;;;;;;12.93;11.50;;;14.60;99.90;;;;;;5115105;27;20179;-33
2023/05/21 01:41:23;;;;;;;13.70;12.30;;;14.60;99.90;;;;;;5115411;27;20189;-33
2023/05/21 01:43:50;;;;;;;14.07;12.57;;;14.60;99.90;;;;;;5111530;27;20204;-33
2023/05/21 01:46:22;;;;;;;13.57;12.13;;;14.60;99.90;;;;;;5097743;27;20182;-33
2023/05/21 01:48:50;;;;;;;13.73;12.23;;;14.60;99.90;;;;;;5114871;27;20199;-33
2023/05/21 01:51:15;;;;;;;13.50;12.10;;;14.60;99.90;;;;;;5114747;27;20178;-33
2023/05/21 01:53:41;;;;;;;15.40;12.67;;;14.60;99.90;;;;;;5083306;28;20196;-34
2023/05/21 01:56:07;;;;;;;15.30;13.50;;;14.50;99.90;;;;;;5083898;27;20167;-35
2023/05/21 01:58:33;;;;;;;14.80;12.20;;;14.60;99.90;;;;;;5131039;27;20203;-32
2023/05/21 02:00:59;;;;;;;14.27;12.77;;;14.50;99.90;;;;;;5130610;27;20171;-33
2023/05/21 02:03:26;;;;;;;14.00;11.93;;;14.50;99.90;;;;;;5114557;27;20228;-33
2023/05/21 02:05:54;;;;;;;14.37;12.87;;;14.50;99.90;;;;;;5114832;27;20278;-33
2023/05/21 02:08:22;;;;;;;13.83;12.23;;;14.50;99.90;;;;;;5114163;27;20203;-33
2023/05/21 02:10:49;;;;;;;14.60;12.97;;;14.50;99.90;;;;;;5114706;27;20217;-32
2023/05/21 02:13:14;;;;;;;15.03;11.70;;;14.40;99.90;;;;;;5114469;27;20206;-33
2023/05/21 02:15:41;;;;;;;13.93;12.43;;;14.40;99.90;;;;;;5112260;28;20180;-35
2023/05/21 02:18:07;;;;;;;15.47;12.80;;;14.40;99.90;;;;;;5110936;28;20183;-33
2023/05/21 02:20:33;;;;;;;15.73;12.87;;;14.40;99.90;;;;;;5096429;27;20236;-33
2023/05/21 02:22:59;;;;;;;14.43;13.03;;;14.50;99.90;;;;;;5097472;27;20218;-33
2023/05/21 02:25:25;;;;;;;15.10;13.07;;;14.50;99.90;;;;;;5114399;27;20262;-33
2023/05/21 02:27:55;;;;;;;13.90;12.50;;;14.40;99.90;;;;;;5114503;27;20195;-31
2023/05/21 02:30:21;;;;;;;13.77;12.37;;;14.40;99.90;;;;;;5113801;27;20182;-32
2023/05/21 02:32:47;;;;;;;14.13;12.40;;;14.40;99.90;;;;;;5114418;27;20199;-33
2023/05/21 02:35:13;;;;;;;15.13;13.13;;;14.40;99.90;;;;;;5132621;27;20631;-33
2023/05/21 02:37:39;;;;;;;15.13;12.87;;;14.30;99.90;;;;;;5097454;27;20182;-33
2023/05/21 02:40:06;;;;;;;13.20;11.80;;;14.30;99.90;;;;;;5132466;27;20167;-33
2023/05/21 02:42:33;;;;;;;14.13;12.23;;;14.20;99.90;;;;;;5114282;27;20179;-32
2023/05/21 02:44:59;;;;;;;15.27;11.77;;;14.20;99.90;;;;;;5107157;28;20176;-35
2023/05/21 02:47:25;;;;;;;13.90;12.20;;;14.30;99.90;;;;;;5094615;27;20201;-32
2023/05/21 02:49:51;;;;;;;14.17;12.67;;;14.20;99.90;;;;;;5114717;27;20171;-33
2023/05/21 02:52:19;;;;;;;13.07;11.80;;;14.20;99.90;;;;;;5113674;27;20179;-33
2023/05/21 02:54:45;;;;;;;14.50;12.30;;;14.10;99.90;;;;;;5113384;27;20248;-34
2023/05/21 02:57:13;;;;;;;13.43;11.90;;;14.00;99.90;;;;;;5114309;27;20210;-33
2023/05/21 02:59:38;;;;;;;13.87;12.10;;;14.00;99.90;;;;;;5096630;27;20179;-34
2023/05/21 03:02:05;;;;;;;13.57;12.17;;;14.00;99.90;;;;;;5113753;27;20179;-33
2023/05/21 03:04:31;;;;;;;14.40;12.97;;;13.90;99.90;;;;;;5096329;27;20191;-33
2023/05/21 03:07:01;;;;;;;15.23;12.07;;;13.90;99.90;;;;;;5096257;27;20179;-32
2023/05/21 03:09:27;;;;;;;15.90;12.50;;;13.80;99.90;;;;;;5096217;27;20206;-32
2023/05/21 03:11:55;;;;;;;15.53;12.77;;;13.80;99.90;;;;;;5113641;27;20179;-33
2023/05/21 03:14:23;;;;;;;16.30;12.83;;;13.80;99.90;;;;;;5112446;27;20222;-33
2023/05/21 03:16:50;;;;;;;14.47;12.93;;;13.70;99.90;;;;;;5105660;27;20179;-33
2023/05/21 03:19:16;;;;;;;14.40;12.90;;;13.80;99.90;;;;;;5096539;27;20194;-33
2023/05/21 03:21:43;;;;;;;14.87;13.37;;;13.80;99.90;;;;;;5113524;27;20179;-33
2023/05/21 03:24:12;;;;;;;14.40;12.90;;;13.70;99.90;;;;;;5112950;28;20202;-32
2023/05/21 03:26:38;;;;;;;14.93;13.20;;;13.70;99.90;;;;;;5113627;27;20262;-33
2023/05/21 03:29:04;;;;;;;14.60;12.90;;;13.60;99.90;;;;;;5096375;27;20285;-33
2023/05/21 03:31:30;;;;;;;15.37;12.83;;;13.60;99.90;;;;;;5112142;27;20172;-33
2023/05/21 03:34:07;;;;;;;15.03;13.47;;;13.60;99.90;;;;;;5097446;27;20190;-32
2023/05/21 03:36:34;;;;;;;14.27;12.77;;;13.50;99.90;;;;;;5096531;28;20184;-32
2023/05/21 03:39:02;;;;;;;14.40;12.90;;;13.50;99.90;;;;;;5112979;28;20199;-32
2023/05/21 03:41:29;;;;;;;14.47;12.80;;;13.50;99.90;;;;;;5113335;28;20179;-32
2023/05/21 03:44:04;;;;;;;14.50;12.97;;;13.50;99.90;;;;;;5096636;28;20198;-32
2023/05/21 03:46:37;;;;;;;15.60;13.27;;;13.50;99.90;;;;;;5102334;28;20200;-32
2023/05/21 03:49:10;;;;;;;14.27;12.77;;;13.50;99.90;;;;;;5083262;28;20195;-35
2023/05/21 03:51:38;;;;;;;14.73;13.10;;;13.50;99.90;;;;;;5113201;28;20213;-36
2023/05/21 03:54:05;;;;;;;14.80;13.20;;;13.40;99.90;;;;;;5112162;28;20222;-32
2023/05/21 03:56:31;;;;;;;15.43;13.83;;;13.40;99.90;;;;;;5112763;28;20179;-34
2023/05/21 03:58:56;;;;;;;14.17;12.70;;;13.40;99.90;;;;;;5131506;28;20167;-33
2023/05/21 04:01:22;;;;;;;14.87;12.00;;;13.40;99.90;;;;;;5113321;28;20181;-34
2023/05/21 04:03:51;;;;;;;16.07;12.80;;;13.40;99.90;;;;;;5112836;28;20250;-33
2023/05/21 04:06:17;;;;;;;14.73;13.23;;;13.40;99.90;;;;;;5096086;28;20206;-37
2023/05/21 04:08:43;;;;;;;14.70;13.00;;;13.40;99.90;;;;;;5112733;28;20199;-33
2023/05/21 04:11:09;;;;;;;14.13;12.57;;;13.40;99.90;;;;;;5112851;28;20181;-33
2023/05/21 04:13:35;;;;;;;15.90;13.67;;;13.40;99.90;;;;;;5112384;28;20218;-32
2023/05/21 04:16:03;;;;;;;13.50;12.10;;;13.50;99.90;;;;;;5092514;28;20174;-35
2023/05/21 04:18:29;;;;;;;14.63;12.07;;;13.50;99.90;;;;;;5092264;28;20180;-32
2023/05/21 04:20:54;;;;;;;13.43;12.03;;;13.50;99.90;;;;;;5095568;28;20179;-32
2023/05/21 04:23:22;;;;;;;14.63;12.40;;;13.50;99.90;;;;;;5112684;28;20199;-33
2023/05/21 04:25:49;;;;;;;14.23;12.07;;;13.50;99.90;;;;;;5112531;28;20194;-32
2023/05/21 04:28:18;;;;;;;14.00;12.57;;;13.60;99.90;;;;;;5113024;28;20203;-32
2023/05/21 04:30:46;;;;;;;14.30;12.90;;;13.60;99.90;;;;;;5116315;27;20725;-36
2023/05/21 04:33:16;;;;;;;15.67;13.57;;;13.70;99.90;;;;;;5116523;27;20223;-35
2023/05/21 04:35:46;;;;;;;14.27;12.77;;;13.70;99.90;;;;;;5099155;27;20175;-33
2023/05/21 04:38:11;;;;;;;16.50;13.40;;;13.80;99.90;;;;;;5116631;27;20175;-33
2023/05/21 04:40:37;;;;;;;14.83;13.37;;;13.80;99.90;;;;;;5116264;27;20182;-32
2023/05/21 04:43:03;;;;;;;15.77;13.57;;;13.90;99.90;;;;;;5099867;27;20283;-37
2023/05/21 04:45:29;;;;;;;14.70;13.20;;;13.90;99.90;;;;;;5106608;27;20270;-33
2023/05/21 04:47:59;;;;;;;15.17;13.03;;;13.90;99.90;;;;;;5116618;27;20199;-33
2023/05/21 04:50:29;;;;;;;14.97;12.87;;;14.00;99.90;;;;;;5116058;27;20235;-34
2023/05/21 04:52:55;;;;;;;14.87;13.37;;;14.00;99.90;;;;;;5116035;27;20191;-32
2023/05/21 04:55:21;;;;;;;14.73;12.97;;;14.00;99.90;;;;;;5098785;27;20214;-34
2023/05/21 04:57:47;;;;;;;14.17;12.60;;;14.00;99.90;;;;;;5116312;27;20231;-33
2023/05/21 05:00:13;;;;;;;16.93;13.53;;;14.10;99.90;;;;;;5098471;27;20175;-34
2023/05/21 05:02:42;;;;;;;16.27;13.87;;;14.10;99.90;;;;;;5116252;27;20196;-32
2023/05/21 05:05:08;;;;;;;15.93;14.23;;;14.10;99.90;;;;;;5098518;27;20183;-33
2023/05/21 05:07:34;;;;;;;17.70;14.10;;;14.20;99.90;;;;;;5115215;27;20246;-32
2023/05/21 05:10:00;;;;;;;14.53;13.03;;;14.20;99.90;;;;;;5114946;27;20206;-33
2023/05/21 05:12:26;;;;;;;14.60;13.13;;;14.20;99.90;;;;;;5115509;27;20179;-31
2023/05/21 05:14:51;;;;;;;15.43;13.83;;;14.20;99.90;;;;;;5094620;28;20211;-33
2023/05/21 05:17:17;;;;;;;15.63;14.00;;;14.30;99.90;;;;;;5093738;27;20255;-35
2023/05/21 05:19:43;;;;;;;16.57;14.77;;;14.20;99.90;;;;;;5115468;27;20174;-32
2023/05/21 05:22:09;;;;;;;16.30;14.07;;;14.20;99.90;;;;;;5098808;27;20213;-32
2023/05/21 05:24:36;;;;;;;17.37;15.13;;;14.20;99.90;;;;;;5098052;27;20203;-32
2023/05/21 05:27:01;;;;;;;15.57;13.93;;;14.20;99.90;;;;;;5115814;27;20211;-33
2023/05/21 05:29:27;;;;;;;15.57;13.97;;;14.20;99.90;;;;;;5115188;27;20218;-34
2023/05/21 05:31:53;;;;;;;18.87;14.13;;;14.30;99.90;;;;;;5115380;27;20182;-32
2023/05/21 05:34:20;;;;;;;16.10;14.00;;;14.40;99.90;;;;;;5094158;27;20187;-33
2023/05/21 05:36:47;;;;;;;16.23;14.53;;;14.40;99.90;;;;;;5114861;27;20186;-32
2023/05/21 05:39:13;;;;;;;16.10;13.93;;;14.50;99.90;;;;;;5114844;27;20175;-33
2023/05/21 05:41:39;;;;;;;16.27;14.00;;;14.50;99.90;;;;;;5133760;27;20180;-33
2023/05/21 05:44:05;;;;;;;16.40;14.70;;;14.50;99.90;;;;;;5092746;27;20202;-33
2023/05/21 05:46:35;;;;;;;19.33;15.80;;;14.50;99.90;;;;;;5106796;27;20290;-34
2023/05/21 05:49:04;;;;;;;17.00;14.33;;;14.60;99.90;;;;;;5128219;27;20207;-32
2023/05/21 05:51:31;;;;;;;15.83;14.13;;;14.60;99.90;;;;;;5133556;27;20175;-39
2023/05/21 05:53:59;;;;;;;15.97;14.30;;;14.60;99.90;;;;;;5097449;27;20298;-33
2023/05/21 05:56:26;;;;;;;19.57;15.50;;;14.70;99.90;;;;;;5104100;27;20184;-35
2023/05/21 05:58:53;;;;;;;16.27;14.57;;;14.70;99.90;;;;;;5114070;27;20179;-33
2023/05/21 06:01:23;;;;;;;15.43;13.83;;;14.80;99.90;;;;;;5113966;27;20183;-34
2023/05/21 06:03:50;;;;;;;15.33;13.73;;;14.80;99.90;;;;;;5106993;27;20199;-33
2023/05/21 06:06:18;;;;;;;15.93;14.33;;;14.80;99.90;;;;;;5114098;27;20187;-32
2023/05/21 06:08:47;;;;;;;16.17;14.10;;;14.90;99.90;;;;;;5113987;27;20202;-36
2023/05/21 06:11:16;;;;;;;16.23;14.53;;;14.90;99.90;;;;;;5094648;27;20305;-33
2023/05/21 06:13:46;;;;;;;15.63;13.93;;;14.90;99.90;;;;;;5123696;27;20210;-33
2023/05/21 06:16:15;;;;;;;16.23;14.23;;;15.00;99.90;;;;;;5112609;27;20171;-32
2023/05/21 06:18:43;;;;;;;15.33;13.73;;;15.10;99.90;;;;;;5114738;27;20176;-32
2023/05/21 06:21:10;;;;;;;19.30;15.40;;;15.20;99.90;;;;;;5097440;27;20175;-33
2023/05/21 06:23:40;;;;;;;16.77;15.07;;;15.30;99.90;;;;;;5129891;27;20370;-34
2023/05/21 06:26:10;;;;;;;17.60;15.53;;;15.40;99.90;;;;;;5130307;27;20233;-31
2023/05/21 06:28:38;;;;;;;17.33;14.93;;;15.50;99.90;;;;;;5101606;28;20207;-35
2023/05/21 06:31:06;;;;;;;15.80;14.20;;;15.50;99.90;;;;;;5095080;27;20179;-35
2023/05/21 06:33:44;;;;;;;19.77;16.23;;;15.60;99.90;;;;;;5132105;27;20244;-34
2023/05/21 06:36:11;;;;;;;17.70;15.87;;;15.70;99.90;;;;;;5114045;27;20215;-34
2023/05/21 06:38:39;;;;;;;18.70;16.60;;;15.80;99.90;;;;;;5097518;27;20186;-34
2023/05/21 06:41:06;;;;;;;18.50;14.97;;;15.90;99.90;;;;;;5132520;27;20183;-35
2023/05/21 06:43:57;;;;;;;22.70;17.00;;;15.90;99.90;;;;;;5109441;27;20306;-34
2023/05/21 06:46:56;;;;;;;19.10;17.10;;;16.00;99.90;;;;;;5128414;27;20188;-34
2023/05/21 06:49:28;;;;;;;17.90;16.00;;;16.10;99.90;;;;;;5097319;27;20306;-35
2023/05/21 06:51:57;;;;;;;19.53;16.87;;;16.30;99.90;;;;;;5101965;27;20170;-35
2023/05/21 06:54:25;;;;;;;16.90;15.20;;;16.30;99.90;;;;;;5114056;27;20199;-35
2023/05/21 06:56:51;;;;;;;17.77;15.87;;;16.40;99.90;;;;;;5114295;27;20227;-35
2023/05/21 06:59:20;;;;;;;15.93;14.23;;;16.50;99.90;;;;;;5095999;27;20186;-35
2023/05/21 07:01:48;;;;;;;16.23;14.63;;;16.60;99.90;;;;;;5114699;27;20656;-35
2023/05/21 07:04:15;;;;;;;16.52;14.82;;;16.70;99.90;;;;;;5098228;27;20214;-35
2023/05/21 07:06:43;;;;;;;17.70;15.27;;;16.90;99.90;;;;;;5115759;27;20216;-35
2023/05/21 07:09:11;;;;;;;17.75;15.23;;;17.00;99.90;;;;;;5120237;27;20283;-35
2023/05/21 07:11:39;;;;;;;17.10;15.40;;;17.10;99.90;;;;;;5113917;27;20182;-36
2023/05/21 07:14:08;;;;;;;18.48;16.48;;;17.20;99.90;;;;;;5102972;27;20226;-36
2023/05/21 07:16:37;;;;;;;17.55;15.70;;;17.30;99.90;;;;;;5104586;27;20206;-35
2023/05/21 07:19:05;;;;;;;17.52;15.38;;;17.40;99.90;;;;;;5106986;28;20180;-35
2023/05/21 07:21:31;;;;;;;15.77;14.05;;;17.50;99.90;;;;;;5076938;28;20222;-35
2023/05/21 07:24:02;;;;;;;17.98;15.90;;;17.60;99.90;;;;;;5091750;27;20286;-35
2023/05/21 07:26:29;;;;;;;17.83;15.90;;;17.70;99.90;;;;;;5108986;27;20180;-35
2023/05/21 07:28:57;;;;;;;17.42;15.18;;;17.80;99.90;;;;;;5102005;28;20207;-34
2023/05/21 07:31:25;;;;;;;19.20;15.93;;;17.80;99.90;;;;;;5103867;27;20167;-35
2023/05/21 07:33:53;;;;;;;16.98;15.18;;;18.00;99.90;;;;;;5111919;28;20199;-35
2023/05/21 07:36:25;;;;;;;15.80;14.20;;;18.10;99.90;;;;;;5081091;27;20179;-34
2023/05/21 07:38:57;;;;;;;17.73;15.93;;;18.30;99.90;;;;;;5099492;27;20187;-34
2023/05/21 07:41:25;;;;;;;18.48;16.05;;;18.40;99.90;;;;;;5109321;28;20214;-35
2023/05/21 07:43:56;;;;;;;17.52;15.32;;;18.50;99.90;;;;;;5103039;28;20237;-34
2023/05/21 07:46:43;;;;;;;19.77;17.67;;;18.60;99.90;;;;;;5100781;28;20240;-35
2023/05/21 07:49:16;;;;;;;19.33;15.57;;;18.50;99.90;;;;;;5092272;28;20218;-35
2023/05/21 07:51:45;;;;;;;16.63;14.93;;;18.60;99.90;;;;;;5092550;28;20172;-35
2023/05/21 07:54:14;;;;;;;20.35;15.93;;;18.70;99.90;;;;;;5107658;28;20199;-35
2023/05/21 07:56:42;;;;;;;16.98;15.27;;;18.80;99.90;;;;;;5112510;28;20183;-35
2023/05/21 07:59:21;;;;;;;16.05;14.32;;;18.80;99.90;;;;;;5097194;28;20213;-36
2023/05/21 08:01:52;;;;;;;17.35;14.30;;;18.90;99.90;;;;;;5111491;28;20191;-35
2023/05/21 08:04:20;;;;;;;17.30;15.57;;;18.90;99.90;;;;;;5099652;27;20203;-36
2023/05/21 08:06:51;;;;;;;17.17;14.85;;;18.90;99.90;;;;;;5104774;27;20209;-36
2023/05/21 08:09:18;;;;;;;17.63;14.45;;;19.20;99.90;;;;;;5096266;27;20219;-34
2023/05/21 08:11:47;;;;;;;17.88;15.45;;;19.30;99.90;;;;;;5098004;27;20191;-35
2023/05/21 08:14:17;;;;;;;15.75;14.02;;;19.50;99.90;;;;;;5108134;27;20203;-35
2023/05/21 08:16:57;;;;;;;16.35;14.75;;;19.80;99.90;;;;;;5097960;28;20193;-36
2023/05/21 08:19:27;;;;;;;16.48;14.75;;;20.20;99.90;;;;;;5088605;27;20207;-35
2023/05/21 08:21:54;;;;;;;16.10;14.40;;;20.40;99.90;;;;;;5079147;28;20278;-36
2023/05/21 08:24:25;;;;;;;15.93;14.23;;;20.50;99.90;;;;;;5110944;27;20199;-36
2023/05/21 08:26:51;;;;;;;14.30;12.93;;;20.70;99.90;;;;;;5112056;27;20179;-35
2023/05/21 08:29:18;;;;;;;15.48;13.93;;;20.90;99.90;;;;;;5104378;27;20248;-35
2023/05/21 08:31:46;;;;;;;14.63;13.23;;;21.20;99.90;;;;;;5125019;27;20228;-35
2023/05/21 08:34:12;;;;;;;15.25;13.63;;;21.20;99.90;;;;;;5104759;27;20183;-36
2023/05/21 08:36:46;;;;;;;15.18;13.63;;;21.40;99.90;;;;;;5115117;27;20183;-36
2023/05/21 08:39:35;;;;;;;13.88;12.48;;;21.70;99.90;;;;;;5101302;28;20287;-37
2023/05/21 08:42:12;;;;;;;13.15;11.85;;;21.60;99.90;;;;;;5106386;28;20172;-36
2023/05/21 08:44:47;;;;;;;15.40;13.85;;;21.90;99.90;;;;;;5102946;27;20195;-35
2023/05/21 08:47:17;;;;;;;13.40;12.00;;;22.00;99.90;;;;;;5096677;27;20187;-35
2023/05/21 08:49:46;;;;;;;14.85;12.57;;;22.10;99.90;;;;;;5084911;27;20204;-36
2023/05/21 08:52:13;;;;;;;13.55;12.15;;;22.30;99.90;;;;;;5095289;27;20252;-36
2023/05/21 08:54:44;;;;;;;13.55;12.25;;;22.40;99.90;;;;;;5115910;27;20204;-35
2023/05/21 08:57:11;;;;;;;14.15;12.50;;;22.40;99.90;;;;;;5129365;27;20183;-35
2023/05/21 08:59:42;;;;;;;12.82;11.52;;;22.50;99.90;;;;;;5097395;28;20180;-35
2023/05/21 09:02:17;;;;;;;14.98;11.82;;;22.40;99.90;;;;;;5109195;27;20258;-36
2023/05/21 09:04:48;;;;;;;13.13;11.82;;;22.50;99.90;;;;;;5103027;27;20215;-35
2023/05/21 09:07:15;;;;;;;13.45;12.00;;;22.50;99.90;;;;;;5092962;27;20171;-36
2023/05/21 09:10:08;;;;;;;14.60;13.07;;;22.50;99.90;;;;;;5114408;27;20206;-35
2023/05/21 09:12:36;;;;;;;14.32;12.95;;;22.40;99.90;;;;;;5071876;27;20188;-36
2023/05/21 09:15:04;;;;;;;15.13;13.73;;;22.30;99.90;;;;;;5092457;27;20187;-35
2023/05/21 09:17:35;;;;;;;14.90;13.30;;;22.40;99.90;;;;;;5104253;27;20182;-36
2023/05/21 09:20:27;;;;;;;15.88;14.32;;;22.40;99.90;;;;;;5121390;27;20173;-35
2023/05/21 09:23:03;;;;;;;16.17;14.52;;;22.60;99.90;;;;;;5104816;27;20196;-36
2023/05/21 09:25:29;;;;;;;16.33;14.63;;;22.70;99.90;;;;;;5084177;27;20172;-36
2023/05/21 09:27:58;;;;;;;13.82;12.48;;;23.00;99.90;;;;;;5091537;27;20262;-36
2023/05/21 09:30:27;;;;;;;15.85;14.25;;;23.10;99.90;;;;;;5104254;27;20198;-38
2023/05/21 09:32:56;;;;;;;15.18;13.68;;;23.20;99.90;;;;;;5094797;27;20192;-36
2023/05/21 09:35:23;;;;;;;16.67;15.07;;;23.30;99.90;;;;;;5093340;27;20259;-36
2023/05/21 09:37:52;;;;;;;16.00;14.50;;;23.10;99.90;;;;;;5101312;27;20200;-35
2023/05/21 09:40:21;;;;;;;15.65;14.07;;;22.80;99.90;;;;;;5105895;27;20171;-35
2023/05/21 09:42:54;;;;;;;13.35;11.30;;;22.70;99.90;;;;;;5103872;27;20224;-35
2023/05/21 09:45:22;;;;;;;16.40;14.25;;;22.80;99.90;;;;;;5109340;27;20227;-35
2023/05/21 09:47:52;;;;;;;15.80;14.15;;;22.80;99.90;;;;;;5090639;27;20167;-36
2023/05/21 09:50:30;;;;;;;14.73;13.25;;;22.90;99.90;;;;;;5111429;27;20175;-36
2023/05/21 09:52:57;;;;;;;15.80;14.20;;;22.90;99.90;;;;;;5103860;27;20206;-36
2023/05/21 09:55:25;;;;;;;16.33;14.45;;;22.80;99.90;;;;;;5098818;27;20174;-34
2023/05/21 09:57:52;;;;;;;16.88;15.15;;;22.70;99.90;;;;;;5091367;27;20171;-36
2023/05/21 10:00:27;;;;;;;14.73;13.15;;;22.70;99.90;;;;;;5100703;28;20634;-35
2023/05/21 10:02:59;;;;;;;14.27;12.77;;;22.80;99.90;;;;;;5115703;27;20198;-35
2023/05/21 10:05:29;;;;;;;15.07;13.57;;;23.10;99.90;;;;;;5098589;27;20191;-35
2023/05/21 10:08:00;;;;;;;15.20;13.40;;;23.20;99.90;;;;;;5104083;27;20272;-36
2023/05/21 10:10:28;;;;;;;13.75;12.45;;;23.30;99.90;;;;;;5119280;27;20221;-36
2023/05/21 10:12:59;;;;;;;13.65;12.15;;;23.50;99.90;;;;;;5101554;27;20246;-36
2023/05/21 10:15:30;;;;;;;12.90;11.65;;;23.60;99.90;;;;;;5096943;27;20208;-36
2023/05/21 10:17:58;;;;;;;13.43;11.68;;;23.80;99.90;;;;;;5111118;27;20232;-35
2023/05/21 10:20:24;;;;;;;13.48;12.07;;;24.00;99.90;;;;;;5101425;28;20188;-36
2023/05/21 10:22:52;;;;;;;12.70;11.35;;;24.10;99.90;;;;;;5092783;27;20209;-36
2023/05/21 10:25:19;;;;;;;13.98;12.52;;;24.30;99.90;;;;;;5106173;27;20198;-35
2023/05/21 10:27:45;;;;;;;13.00;11.70;;;24.30;99.90;;;;;;5090493;28;20225;-35
2023/05/21 10:30:13;;;;;;;13.10;11.75;;;24.40;99.90;;;;;;5110274;27;20179;-35
2023/05/21 10:32:40;;;;;;;12.32;10.68;;;24.60;99.90;;;;;;5097490;27;20206;-34
2023/05/21 10:35:08;;;;;;;12.07;10.98;;;24.80;99.90;;;;;;5106626;28;20171;-34
2023/05/21 10:37:35;;;;;;;12.70;11.40;;;24.70;99.90;;;;;;5099106;28;20203;-34
2023/05/21 10:40:01;;;;;;;13.18;11.95;;;24.80;99.90;;;;;;5117904;27;20186;-34
2023/05/21 10:42:30;;;;;;;12.07;10.88;;;25.10;99.90;;;;;;5099583;27;20171;-34
2023/05/21 10:45:19;;;;;;;15.85;14.00;;;25.30;99.90;;;;;;5123420;27;20183;-34
2023/05/21 10:47:58;;;;;;;17.08;12.70;;;25.50;99.90;;;;;;5107048;28;20180;-33
2023/05/21 10:50:41;;;;;;;11.50;10.52;;;25.60;99.90;;;;;;5093030;27;20210;-34
2023/05/21 10:53:35;;;;;;;11.48;10.35;;;25.80;99.90;;;;;;5097219;27;20658;-34
2023/05/21 10:56:38;;;;;;;11.65;10.45;;;26.00;99.90;;;;;;5098366;28;20251;-34
2023/05/21 10:59:12;;;;;;;11.32;10.07;;;26.10;99.90;;;;;;5110402;27;20179;-35
2023/05/21 11:01:40;;;;;;;10.63;9.63;;;26.00;99.90;;;;;;5096721;27;20174;-34
2023/05/21 11:04:06;;;;;;;11.65;9.48;;;26.10;99.90;;;;;;5113474;27;20203;-34
2023/05/21 11:06:32;;;;;;;10.10;9.18;;;26.30;99.90;;;;;;5113617;27;20191;-34
2023/05/21 11:09:14;;;;;;;11.60;9.93;;;26.50;99.90;;;;;;5131915;27;20297;-34
2023/05/21 11:11:56;;;;;;;11.63;10.43;;;26.40;99.90;;;;;;5113498;27;20171;-34
2023/05/21 11:14:33;;;;;;;10.55;9.55;;;26.50;99.90;;;;;;5106947;28;20264;-33
2023/05/21 11:17:01;;;;;;;10.32;9.27;;;26.60;99.90;;;;;;5110093;27;20186;-34
2023/05/21 11:19:36;;;;;;;11.57;10.23;;;26.30;99.90;;;;;;5112139;27;20211;-34
2023/05/21 11:22:24;;;;;;;13.93;10.00;;;26.10;99.90;;;;;;5105558;27;20182;-34
2023/05/21 11:24:52;;;;;;;11.45;9.80;;;26.00;99.90;;;;;;5100830;27;20391;-34
2023/05/21 11:27:40;;;;;;;10.07;9.07;;;26.00;99.90;;;;;;5098327;28;20186;-34
2023/05/21 11:30:07;;;;;;;10.98;9.88;;;26.00;99.90;;;;;;5108869;27;20207;-34
2023/05/21 11:33:09;;;;;;;10.18;9.27;;;26.00;99.90;;;;;;5100860;27;20186;-34
2023/05/21 11:35:45;;;;;;;11.30;10.13;;;25.70;99.90;;;;;;5122478;27;20190;-34
2023/05/21 11:38:13;;;;;;;9.93;9.02;;;25.60;99.90;;;;;;5101434;28;20202;-34
2023/05/21 11:41:01;;;;;;;10.77;9.80;;;25.70;99.90;;;;;;5122947;28;20174;-34
2023/05/21 11:43:28;;;;;;;10.73;9.20;;;25.80;99.90;;;;;;5096408;28;20235;-34
2023/05/21 11:45:54;;;;;;;10.52;9.52;;;25.90;99.90;;;;;;5092187;28;20183;-34
2023/05/21 11:48:23;;;;;;;10.00;9.00;;;26.00;99.90;;;;;;5104313;28;20737;-34
2023/05/21 11:50:49;;;;;;;10.15;9.15;;;26.10;99.90;;;;;;5096992;28;20218;-34
2023/05/21 11:53:15;;;;;;;10.70;9.60;;;26.00;99.90;;;;;;5094249;28;20195;-34
2023/05/21 11:55:42;;;;;;;9.80;8.93;;;26.10;99.90;;;;;;5126946;28;20182;-34
2023/05/21 11:58:17;;;;;;;10.68;9.57;;;26.10;99.90;;;;;;5103110;28;20183;-34
2023/05/21 12:00:43;;;;;;;9.60;8.68;;;26.00;99.90;;;;;;5100016;28;20259;-34
2023/05/21 12:03:13;;;;;;;9.63;8.73;;;26.10;99.90;;;;;;5104413;28;20285;-34
2023/05/21 12:05:48;;;;;;;10.52;9.38;;;26.10;99.90;;;;;;5090398;28;20183;-34
2023/05/21 12:08:24;;;;;;;10.00;9.10;;;26.20;99.90;;;;;;5113393;28;20201;-34
2023/05/21 12:10:57;;;;;;;9.15;8.35;;;26.40;99.90;;;;;;5115128;28;20167;-34
2023/05/21 12:13:24;;;;;;;9.82;8.93;;;26.50;99.90;;;;;;5098228;28;20210;-34
2023/05/21 12:15:55;;;;;;;10.15;9.15;;;26.60;99.90;;;;;;5113078;28;20175;-33
2023/05/21 12:18:21;;;;;;;9.82;8.82;;;26.80;99.90;;;;;;5112510;28;20203;-34
2023/05/21 12:20:47;;;;;;;8.70;7.90;;;27.00;99.90;;;;;;5095850;28;20176;-35
2023/05/21 12:23:23;;;;;;;9.10;8.20;;;27.10;99.90;;;;;;5112721;28;20199;-34
2023/05/21 12:25:50;;;;;;;9.52;8.52;;;27.20;99.90;;;;;;5112655;28;20243;-33
2023/05/21 12:28:16;;;;;;;9.27;8.38;;;27.30;99.90;;;;;;5122293;28;20192;-34
2023/05/21 12:30:42;;;;;;;9.63;8.73;;;27.40;99.90;;;;;;5113836;28;20183;-35
2023/05/21 12:33:08;;;;;;;9.32;8.20;;;27.60;99.90;;;;;;5108443;28;20191;-35
2023/05/21 12:35:34;;;;;;;8.43;7.60;;;27.70;99.90;;;;;;5099871;28;20195;-34
2023/05/21 12:38:05;;;;;;;9.25;8.32;;;28.00;99.90;;;;;;5085576;28;20176;-33
2023/05/21 12:40:36;;;;;;;8.40;7.50;;;28.10;99.90;;;;;;5089129;28;20171;-34